Time;durP1;ratioP1;P1;durP2;ratioP2;P2;SDS_P1;SDS_P2;PMS_P1;PMS_P2;Temp;Humidity;BMP_temperature;BMP_pressure;BME280_temperature;BME280_humidity;BME280_pressure;Samples;Min_cycle;Max_cycle;Signal;HPM_P1;HPM_P2
2021/11/05 00:00:15;;;;;;;48.30;21.92;;;;;;;6.20;100.00;100628.66;5087522;28;20036;-75
2021/11/05 00:02:41;;;;;;;54.47;24.08;;;;;;;6.08;100.00;100616.50;5086104;28;20105;-75
2021/11/05 00:05:07;;;;;;;60.53;27.57;;;;;;;6.11;100.00;100629.47;5085824;28;20649;-75
2021/11/05 00:07:32;;;;;;;54.83;24.92;;;;;;;6.06;100.00;100637.00;5086568;28;20123;-75
2021/11/05 00:09:57;;;;;;;58.90;25.23;;;;;;;6.05;100.00;100632.69;5086105;28;20441;-75
2021/11/05 00:12:23;;;;;;;52.53;25.45;;;;;;;6.05;100.00;100653.88;5085981;28;20086;-74
2021/11/05 00:14:48;;;;;;;64.30;26.60;;;;;;;6.02;100.00;100654.16;5086973;28;20078;-75
2021/11/05 00:17:14;;;;;;;66.95;26.13;;;;;;;5.91;100.00;100641.81;5086960;28;20059;-76
2021/11/05 00:19:39;;;;;;;63.90;25.73;;;;;;;5.89;100.00;100660.50;5086071;28;20342;-75
2021/11/05 00:22:06;;;;;;;56.38;24.42;;;;;;;5.96;100.00;100686.50;5085966;28;20047;-75
2021/11/05 00:24:32;;;;;;;62.25;26.52;;;;;;;5.90;100.00;100696.63;5086674;28;20042;-75
2021/11/05 00:26:57;;;;;;;57.00;24.60;;;;;;;5.93;100.00;100712.25;5085902;28;20028;-76
2021/11/05 00:29:23;;;;;;;53.47;24.90;;;;;;;5.92;100.00;100717.69;5086104;28;20047;-75
2021/11/05 00:31:49;;;;;;;60.53;25.30;;;;;;;5.89;100.00;100708.19;5085851;28;20037;-74
2021/11/05 00:34:17;;;;;;;63.00;26.02;;;;;;;5.85;100.00;100712.09;5068771;28;20032;-75
2021/11/05 00:36:45;;;;;;;56.60;23.73;;;;;;;5.86;100.00;100729.66;5068863;28;20067;-75
2021/11/05 00:39:10;;;;;;;57.20;24.88;;;;;;;5.84;100.00;100721.00;5085758;28;20024;-75
2021/11/05 00:41:36;;;;;;;55.57;24.30;;;;;;;5.88;100.00;100722.41;5086679;28;20036;-75
2021/11/05 00:44:02;;;;;;;58.00;23.67;;;;;;;5.88;100.00;100714.47;5086405;28;20129;-75
2021/11/05 00:46:27;;;;;;;58.10;24.33;;;;;;;5.77;100.00;100696.00;5085695;28;20036;-75
2021/11/05 00:48:52;;;;;;;51.80;22.43;;;;;;;5.69;100.00;100703.78;5086733;28;20516;-75
2021/11/05 00:51:18;;;;;;;55.03;25.53;;;;;;;5.71;100.00;100712.41;5086726;28;20036;-75
2021/11/05 00:53:44;;;;;;;56.53;22.52;;;;;;;5.64;100.00;100698.03;5086400;28;20290;-75
2021/11/05 00:56:09;;;;;;;54.23;20.73;;;;;;;5.62;100.00;100698.19;5085569;28;20036;-75
2021/11/05 00:58:34;;;;;;;56.90;24.17;;;;;;;5.55;100.00;100704.09;5085676;28;20028;-75
2021/11/05 01:01:00;;;;;;;53.30;23.20;;;;;;;5.47;100.00;100713.53;5088945;28;20035;-75
2021/11/05 01:03:25;;;;;;;59.43;23.70;;;;;;;5.50;100.00;100717.75;5090065;28;20031;-75
2021/11/05 01:05:51;;;;;;;52.70;22.40;;;;;;;5.36;100.00;100699.53;5089164;28;20374;-75
2021/11/05 01:08:16;;;;;;;52.57;21.90;;;;;;;5.38;100.00;100719.63;5089516;28;20282;-75
2021/11/05 01:10:42;;;;;;;57.23;22.87;;;;;;;5.27;100.00;100711.78;5090151;28;20067;-75
2021/11/05 01:13:08;;;;;;;57.10;22.77;;;;;;;5.34;100.00;100738.53;5072157;28;20114;-75
2021/11/05 01:15:34;;;;;;;59.40;23.50;;;;;;;5.36;100.00;100769.25;5090213;28;20879;-76
2021/11/05 01:18:00;;;;;;;56.60;22.88;;;;;;;5.24;100.00;100763.16;5088843;28;20043;-75
2021/11/05 01:20:26;;;;;;;55.95;22.25;;;;;;;5.21;100.00;100773.97;5089816;28;20051;-75
2021/11/05 01:22:51;;;;;;;57.53;24.77;;;;;;;5.21;100.00;100797.81;5088713;28;20028;-75
2021/11/05 01:25:17;;;;;;;58.22;22.98;;;;;;;5.26;100.00;100815.94;5071801;28;20366;-75
2021/11/05 01:27:45;;;;;;;58.22;21.38;;;;;;;5.27;100.00;100825.59;5089752;28;20031;-75
2021/11/05 01:30:12;;;;;;;55.47;22.15;;;;;;;5.24;100.00;100824.03;5089773;28;20071;-75
2021/11/05 01:32:38;;;;;;;57.25;23.60;;;;;;;5.19;100.00;100820.91;5089676;28;20071;-75
2021/11/05 01:35:07;;;;;;;53.38;21.13;;;;;;;5.18;100.00;100823.69;5088343;28;20082;-75
2021/11/05 01:37:33;;;;;;;53.28;20.92;;;;;;;5.27;100.00;100846.78;5088744;28;20079;-75
2021/11/05 01:39:58;;;;;;;50.92;21.65;;;;;;;5.18;100.00;100823.69;5089892;28;20552;-76
2021/11/05 01:42:24;;;;;;;56.87;24.73;;;;;;;5.18;100.00;100829.84;5071901;28;20100;-76
2021/11/05 01:44:49;;;;;;;48.03;20.20;;;;;;;5.22;100.00;100835.69;5088362;28;20357;-75
2021/11/05 01:47:18;;;;;;;48.25;21.70;;;;;;;5.11;100.00;100807.47;5089374;28;20051;-76
2021/11/05 01:49:45;;;;;;;47.40;19.63;;;;;;;5.11;100.00;100820.72;5088616;28;20677;-76
2021/11/05 01:52:10;;;;;;;54.70;22.20;;;;;;;5.08;100.00;100815.69;5089133;28;20043;-76
2021/11/05 01:54:36;;;;;;;61.03;20.92;;;;;;;4.96;100.00;100814.00;5071423;28;20415;-76
2021/11/05 01:57:02;;;;;;;52.90;20.10;;;;;;;4.97;100.00;100821.00;5088604;28;20036;-76
2021/11/05 01:59:35;;;;;;;51.75;21.05;;;;;;;4.96;100.00;100836.00;5088183;28;20119;-76
2021/11/05 02:02:02;;;;;;;49.83;22.08;;;;;;;5.05;100.00;100869.66;5088303;28;20028;-76
2021/11/05 02:04:28;;;;;;;58.50;23.40;;;;;;;4.97;100.00;100858.03;5088694;28;20032;-76
2021/11/05 02:06:54;;;;;;;58.58;22.58;;;;;;;5.03;100.00;100884.00;5087770;28;20043;-76
2021/11/05 02:09:22;;;;;;;60.40;23.50;;;;;;;5.02;100.00;100899.03;5086910;28;20051;-76
2021/11/05 02:11:49;;;;;;;53.75;21.50;;;;;;;5.03;100.00;100908.66;5087888;28;20023;-76
2021/11/05 02:14:23;;;;;;;47.80;21.02;;;;;;;5.08;100.00;100919.72;5087627;28;20388;-75
2021/11/05 02:16:52;;;;;;;46.72;19.58;;;;;;;5.12;100.00;100935.34;5087935;28;20181;-76
2021/11/05 02:19:20;;;;;;;55.45;20.85;;;;;;;5.07;100.00;100933.91;5088697;28;20046;-76
2021/11/05 02:21:48;;;;;;;56.83;21.42;;;;;;;5.03;100.00;100948.38;5087872;28;20095;-76
2021/11/05 02:24:15;;;;;;;49.72;20.77;;;;;;;5.01;100.00;100945.00;5087248;28;20131;-76
2021/11/05 02:26:42;;;;;;;62.38;21.70;;;;;;;4.96;100.00;100941.00;5087638;28;20032;-76
2021/11/05 02:29:08;;;;;;;45.20;18.77;;;;;;;4.89;100.00;100938.00;5087603;28;20031;-76
2021/11/05 02:31:35;;;;;;;62.13;21.80;;;;;;;4.84;100.00;100948.94;5087436;28;20020;-76
2021/11/05 02:34:00;;;;;;;45.80;18.75;;;;;;;4.85;100.00;100958.59;5086935;28;20048;-76
2021/11/05 02:36:26;;;;;;;55.20;20.77;;;;;;;4.78;100.00;100956.56;5087463;28;20039;-76
2021/11/05 02:38:52;;;;;;;50.22;19.73;;;;;;;4.84;100.00;100979.84;5087458;28;20032;-76
2021/11/05 02:41:20;;;;;;;;;;;;;;;4.84;100.00;100993.09;5088990;28;20429;-76
2021/11/05 02:43:46;;;;;;;47.17;17.38;;;;;;;4.79;100.00;100997.91;5087027;28;19912;-76
2021/11/05 02:46:12;;;;;;;47.60;19.88;;;;;;;4.73;100.00;101001.88;5070505;28;20127;-76
2021/11/05 02:48:37;;;;;;;52.83;19.63;;;;;;;4.78;100.00;101020.88;5088309;28;20103;-76
2021/11/05 02:51:03;;;;;;;50.97;19.30;;;;;;;4.73;100.00;101024.81;5087120;28;20424;-76
2021/11/05 02:53:28;;;;;;;50.03;20.60;;;;;;;4.76;100.00;101051.06;5087935;28;20101;-75
2021/11/05 02:55:54;;;;;;;60.08;19.85;;;;;;;4.78;100.00;101057.06;5070254;28;20170;-77
2021/11/05 02:58:19;;;;;;;48.17;18.93;;;;;;;4.68;100.00;101042.84;5086986;28;20031;-76
2021/11/05 03:00:45;;;;;;;46.45;18.40;;;;;;;4.75;100.00;101065.22;5086996;28;20039;-76
2021/11/05 03:03:12;;;;;;;46.95;18.13;;;;;;;4.76;100.00;101080.97;5086952;28;20095;-76
2021/11/05 03:05:38;;;;;;;49.97;19.02;;;;;;;4.77;100.00;101082.66;5086836;28;20032;-76
2021/11/05 03:08:04;;;;;;;;;;;;;;;4.78;100.00;101092.28;5086907;28;20092;-76
2021/11/05 03:10:30;;;;;;;48.15;19.23;;;;;;;4.73;100.00;101101.53;5086905;28;19916;-77
2021/11/05 03:12:56;;;;;;;45.08;16.80;;;;;;;4.68;100.00;101099.22;5087676;28;20036;-76
2021/11/05 03:15:21;;;;;;;52.78;19.27;;;;;;;4.73;100.00;101120.91;5087596;28;20042;-76
2021/11/05 03:17:47;;;;;;;44.33;18.13;;;;;;;4.72;100.00;101139.53;5086758;28;20480;-76
2021/11/05 03:20:14;;;;;;;46.35;18.45;;;;;;;4.70;100.00;101130.84;5069939;28;20362;-76
2021/11/05 03:22:40;;;;;;;40.92;16.33;;;;;;;4.71;100.00;101140.50;5087187;28;20032;-76
2021/11/05 03:25:07;;;;;;;45.10;16.92;;;;;;;4.79;100.00;101162.75;5087614;28;20684;-76
2021/11/05 03:27:33;;;;;;;;;;;;;;;4.79;100.00;101161.91;5087289;28;20054;-76
2021/11/05 03:29:59;;;;;;;41.30;15.15;;;;;;;4.78;100.00;101170.81;5087576;28;19924;-76
2021/11/05 03:32:25;;;;;;;;;;;;;;;4.95;100.00;101196.00;5087125;28;20176;-76
2021/11/05 03:34:50;;;;;;;35.90;13.95;;;;;;;4.91;100.00;101181.31;5069615;28;19999;-76
2021/11/05 03:37:16;;;;;;;39.50;13.60;;;;;;;4.78;100.00;101154.94;5087411;28;20059;-76
2021/11/05 03:39:41;;;;;;;34.92;14.57;;;;;;;4.82;100.00;101156.38;5086618;28;20468;-76
2021/11/05 03:42:07;;;;;;;40.20;16.67;;;;;;;4.78;100.00;101142.56;5086524;28;20013;-76
2021/11/05 03:44:33;;;;;;;38.53;13.95;;;;;;;4.82;100.00;101143.16;5069365;28;20568;-76
2021/11/05 03:46:59;;;;;;;35.88;15.35;;;;;;;4.73;100.00;101125.31;5069926;28;20051;-76
2021/11/05 03:49:24;;;;;;;36.33;14.30;;;;;;;4.72;100.00;101113.06;5087387;28;20468;-76
2021/11/05 03:51:50;;;;;;;33.90;14.55;;;;;;;4.82;100.00;101116.69;5086168;28;20039;-76
2021/11/05 03:54:15;;;;;;;37.40;14.88;;;;;;;4.70;100.00;101084.09;5086910;28;20051;-76
2021/11/05 03:56:41;;;;;;;32.97;14.32;;;;;;;4.72;100.00;101079.53;5086197;28;20028;-75
2021/11/05 03:59:06;;;;;;;34.33;14.75;;;;;;;4.53;100.00;101052.78;5086440;28;20039;-76
2021/11/05 04:01:32;;;;;;;34.80;14.23;;;;;;;4.59;100.00;101062.91;5087056;28;20122;-76
2021/11/05 04:03:58;;;;;;;33.00;12.30;;;;;;;4.53;100.00;101061.56;5085895;28;20036;-75
2021/11/05 04:06:24;;;;;;;31.90;14.57;;;;;;;4.46;100.00;101057.69;5085504;28;20039;-76
2021/11/05 04:08:50;;;;;;;32.47;13.85;;;;;;;4.49;100.00;101075.97;5086169;28;20051;-75
2021/11/05 04:11:17;;;;;;;31.65;13.18;;;;;;;4.51;100.00;101095.19;5086979;28;20028;-76
2021/11/05 04:13:43;;;;;;;37.80;13.50;;;;;;;4.38;100.00;101078.59;5085688;28;20036;-76
2021/11/05 04:16:09;;;;;;;;;;;;;;;4.52;100.00;101118.06;5086483;28;20036;-76
2021/11/05 04:18:35;;;;;;;36.03;12.63;;;;;;;4.43;100.00;101118.75;5085958;28;20364;-75
2021/11/05 04:21:00;;;;;;;35.05;14.25;;;;;;;4.43;100.00;101130.16;5086077;28;20043;-75
2021/11/05 04:23:26;;;;;;;36.92;15.00;;;;;;;4.40;100.00;101140.09;5085804;28;20542;-75
2021/11/05 04:25:52;;;;;;;;;;;;;;;4.32;100.00;101143.31;5086441;28;20028;-75
2021/11/05 04:28:18;;;;;;;37.58;13.38;;;;;;;4.32;100.00;101158.34;5069210;28;19912;-75
2021/11/05 04:30:44;;;;;;;35.33;13.27;;;;;;;4.25;100.00;101165.03;5085983;28;20040;-76
2021/11/05 04:33:10;;;;;;;28.90;13.35;;;;;;;4.37;100.00;101204.63;5086682;28;20032;-75
2021/11/05 04:35:37;;;;;;;34.85;12.15;;;;;;;4.35;100.00;101197.75;5089416;28;20330;-76
2021/11/05 04:38:03;;;;;;;33.33;13.15;;;;;;;4.29;100.00;101195.56;5090987;28;20082;-75
2021/11/05 04:40:29;;;;;;;36.35;12.60;;;;;;;4.26;100.00;101201.94;5091087;28;20055;-76
2021/11/05 04:42:55;;;;;;;32.65;13.35;;;;;;;4.15;100.00;101194.75;5090718;28;20449;-75
2021/11/05 04:45:20;;;;;;;37.55;13.10;;;;;;;4.12;100.00;101197.63;5072529;28;20431;-75
2021/11/05 04:47:46;;;;;;;42.57;13.83;;;;;;;4.09;100.00;101213.69;5072544;28;20046;-76
2021/11/05 04:50:12;;;;;;;29.02;12.10;;;;;;;4.07;100.00;101231.44;5089363;28;20281;-76
2021/11/05 04:52:38;;;;;;;33.67;12.68;;;;;;;4.06;100.00;101250.06;5090503;28;20054;-76
2021/11/05 04:55:06;;;;;;;33.83;13.90;;;;;;;3.98;100.00;101246.16;5089319;28;20479;-76
2021/11/05 04:57:32;;;;;;;36.20;13.82;;;;;;;4.08;100.00;101288.63;5089486;28;20040;-76
2021/11/05 04:59:58;;;;;;;31.30;13.35;;;;;;;4.09;100.00;101292.97;5089393;28;20032;-76
2021/11/05 05:02:23;;;;;;;36.83;12.50;;;;;;;4.16;100.00;101315.38;5089251;28;20462;-76
2021/11/05 05:04:50;;;;;;;40.72;14.70;;;;;;;4.09;100.00;101314.09;5090142;28;20062;-76
2021/11/05 05:07:16;;;;;;;40.03;14.75;;;;;;;4.12;100.00;101327.13;5089073;28;20050;-76
2021/11/05 05:09:42;;;;;;;35.78;14.07;;;;;;;4.09;100.00;101329.97;5089259;28;20063;-76
2021/11/05 05:12:08;;;;;;;35.30;14.40;;;;;;;4.13;100.00;101339.38;5072303;28;20067;-76
2021/11/05 05:14:34;;;;;;;33.92;14.43;;;;;;;4.16;100.00;101327.75;5089837;28;20028;-76
2021/11/05 05:16:59;;;;;;;36.03;14.75;;;;;;;4.11;100.00;101320.13;5090378;28;20511;-76
2021/11/05 05:19:25;;;;;;;32.13;12.07;;;;;;;4.10;100.00;101331.66;5090156;28;20028;-76
2021/11/05 05:21:50;;;;;;;33.40;12.60;;;;;;;4.22;100.00;101336.09;5090147;28;20437;-76
2021/11/05 05:24:16;;;;;;;28.33;12.17;;;;;;;4.22;100.00;101317.59;5071932;28;20035;-76
2021/11/05 05:26:41;;;;;;;31.73;12.18;;;;;;;4.15;100.00;101302.28;5089900;28;20047;-76
2021/11/05 05:29:07;;;;;;;28.48;11.88;;;;;;;4.20;100.00;101300.16;5071897;28;20477;-76
2021/11/05 05:31:33;;;;;;;35.73;12.83;;;;;;;4.26;100.00;101297.09;5072142;28;20061;-76
2021/11/05 05:33:58;;;;;;;27.58;12.00;;;;;;;4.21;100.00;101288.63;5088547;28;20052;-76
2021/11/05 05:36:24;;;;;;;30.27;11.70;;;;;;;4.09;100.00;101255.97;5088878;28;20097;-76
2021/11/05 05:38:50;;;;;;;31.10;13.00;;;;;;;4.05;100.00;101251.00;5071748;28;20063;-76
2021/11/05 05:41:16;;;;;;;31.95;13.60;;;;;;;4.01;100.00;101239.81;5089717;28;20031;-77
2021/11/05 05:43:43;;;;;;;33.42;11.90;;;;;;;3.99;100.00;101237.28;5088390;28;20036;-77
2021/11/05 05:46:10;;;;;;;34.53;12.63;;;;;;;3.95;100.00;101240.25;5089290;28;20032;-76
2021/11/05 05:48:36;;;;;;;30.75;12.38;;;;;;;4.00;100.00;101248.69;5088596;28;20445;-76
2021/11/05 05:51:02;;;;;;;33.85;11.88;;;;;;;4.06;100.00;101260.63;5089190;28;20451;-77
2021/11/05 05:53:27;;;;;;;34.50;12.82;;;;;;;4.12;100.00;101271.63;5088966;28;20115;-76
2021/11/05 05:55:53;;;;;;;36.72;14.38;;;;;;;4.19;100.00;101296.66;5088309;28;20161;-76
2021/11/05 05:58:18;;;;;;;32.15;14.07;;;;;;;4.17;100.00;101303.84;5088356;28;20044;-77
2021/11/05 06:00:44;;;;;;;38.40;12.80;;;;;;;4.14;100.00;101298.75;5089207;28;20039;-76
2021/11/05 06:03:11;;;;;;;34.75;13.13;;;;;;;4.15;100.00;101308.41;5089101;28;20719;-77
2021/11/05 06:05:37;;;;;;;33.00;13.35;;;;;;;4.14;100.00;101305.84;5088967;28;20093;-76
2021/11/05 06:08:02;;;;;;;31.23;13.50;;;;;;;4.14;100.00;101300.56;5088777;28;20047;-76
2021/11/05 06:10:28;;;;;;;35.90;12.75;;;;;;;4.02;100.00;101284.59;5071172;28;20101;-77
2021/11/05 06:12:53;;;;;;;34.47;13.10;;;;;;;3.93;100.00;101273.84;5089028;28;20036;-76
2021/11/05 06:15:19;;;;;;;37.83;13.93;;;;;;;3.92;100.00;101274.81;5087932;28;20043;-76
2021/11/05 06:17:44;;;;;;;40.50;13.23;;;;;;;3.90;100.00;101290.75;5088081;28;20155;-76
2021/11/05 06:20:10;;;;;;;33.20;13.13;;;;;;;3.89;100.00;101286.44;5071104;28;20043;-76
2021/11/05 06:22:36;;;;;;;36.40;14.18;;;;;;;3.80;100.00;101274.69;5087935;28;20107;-77
2021/11/05 06:25:03;;;;;;;37.58;13.70;;;;;;;3.83;100.00;101283.38;5088548;28;20369;-77
2021/11/05 06:27:28;;;;;;;33.28;14.18;;;;;;;3.82;100.00;101287.81;5087569;28;20030;-76
2021/11/05 06:29:55;;;;;;;32.78;12.55;;;;;;;3.79;100.00;101283.59;5070069;28;20032;-76
2021/11/05 06:32:21;;;;;;;45.47;13.90;;;;;;;3.75;100.00;101287.38;5088618;28;20028;-76
2021/11/05 06:34:47;;;;;;;37.65;13.27;;;;;;;3.72;100.00;101287.59;5088273;28;20073;-77
2021/11/05 06:37:12;;;;;;;48.15;18.13;;;;;;;3.74;100.00;101295.41;5088519;28;20415;-76
2021/11/05 06:39:39;;;;;;;44.40;16.37;;;;;;;3.80;100.00;101322.25;5087443;28;20031;-76
2021/11/05 06:42:04;;;;;;;44.10;15.07;;;;;;;3.74;100.00;101316.53;5087542;28;20028;-76
2021/11/05 06:44:30;;;;;;;39.97;14.80;;;;;;;3.71;100.00;101322.03;5087317;28;20600;-76
2021/11/05 06:46:57;;;;;;;33.30;12.80;;;;;;;3.66;100.00;101318.88;5087317;28;20016;-76
2021/11/05 06:49:23;;;;;;;38.25;13.77;;;;;;;3.69;100.00;101342.41;5087327;28;20059;-76
2021/11/05 06:51:53;;;;;;;42.97;14.23;;;;;;;3.74;100.00;101350.88;5087067;28;20445;-77
2021/11/05 06:54:19;;;;;;;36.05;12.45;;;;;;;3.91;100.00;101386.69;5087063;28;20032;-77
2021/11/05 06:56:44;;;;;;;33.67;13.32;;;;;;;4.03;100.00;101407.03;5087882;28;20027;-76
2021/11/05 06:59:10;;;;;;;38.83;13.43;;;;;;;4.15;100.00;101434.41;5086753;28;20538;-76
2021/11/05 07:01:36;;;;;;;30.38;13.77;;;;;;;4.17;100.00;101441.28;5086479;28;20289;-76
2021/11/05 07:04:01;;;;;;;31.35;12.25;;;;;;;4.17;100.00;101446.56;5068195;28;20058;-77
2021/11/05 07:06:27;;;;;;;35.22;13.57;;;;;;;4.31;100.00;101468.56;5068044;28;20039;-77
2021/11/05 07:08:53;;;;;;;31.75;12.88;;;;;;;4.58;100.00;101492.28;5085469;28;20039;-77
2021/11/05 07:11:18;;;;;;;29.57;12.07;;;;;;;4.68;100.00;101508.38;5086432;28;20020;-78
2021/11/05 07:13:43;;;;;;;23.87;10.73;;;;;;;4.74;100.00;101500.00;5084988;28;20476;-78
2021/11/05 07:16:10;;;;;;;34.00;11.63;;;;;;;5.03;100.00;101535.88;5086965;28;20544;-79
2021/11/05 07:18:36;;;;;;;;;;;;;;;5.35;100.00;101535.41;5088228;28;20417;-79
2021/11/05 07:21:04;;;;;;;24.88;9.75;;;;;;;5.46;100.00;101530.19;5086663;28;19916;-79
2021/11/05 07:23:32;;;;;;;23.23;9.73;;;;;;;5.64;100.00;101495.38;5086445;28;20036;-79
2021/11/05 07:25:59;;;;;;;19.20;8.18;;;;;;;5.79;100.00;101486.31;5086456;28;20035;-79
2021/11/05 07:28:24;;;;;;;19.25;8.93;;;;;;;6.02;100.00;101486.44;5087764;28;20681;-79
2021/11/05 07:30:50;;;;;;;19.10;8.53;;;;;;;6.15;100.00;101454.53;5086502;28;20036;-79
2021/11/05 07:33:15;;;;;;;16.42;7.57;;;;;;;6.28;100.00;101420.81;5086107;28;20461;-78
2021/11/05 07:35:41;;;;;;;13.23;6.13;;;;;;;6.41;100.00;101379.09;5087417;28;20473;-78
2021/11/05 07:38:07;;;;;;;13.88;6.85;;;;;;;6.57;100.00;101315.06;5087678;28;20035;-78
2021/11/05 07:40:32;;;;;;;12.43;6.20;;;;;;;7.08;100.00;101293.25;5087673;28;20105;-79
2021/11/05 07:42:58;;;;;;;16.45;6.07;;;;;;;7.32;100.00;101245.19;5086690;28;20537;-79
2021/11/05 07:45:25;;;;;;;12.70;6.33;;;;;;;7.10;100.00;101203.69;5086196;28;20028;-79
2021/11/05 07:47:53;;;;;;;12.25;6.55;;;;;;;6.89;100.00;101173.63;5085942;28;20050;-78
2021/11/05 07:50:20;;;;;;;7.97;4.47;;;;;;;6.97;100.00;101168.50;5086355;28;20508;-79
2021/11/05 07:52:45;;;;;;;;;;;;;;;6.86;100.00;101147.31;5069308;28;20047;-78
2021/11/05 07:55:11;;;;;;;13.63;4.88;;;;;;;6.98;100.00;101151.63;5086556;28;19912;-78
2021/11/05 07:57:37;;;;;;;9.20;4.80;;;;;;;6.94;100.00;101144.88;5086894;28;20028;-79
2021/11/05 08:00:09;;;;;;;11.63;6.40;;;;;;;7.05;100.00;101154.59;5086003;28;20732;-78
2021/11/05 08:02:34;;;;;;;9.07;4.60;;;;;;;7.17;100.00;101156.22;5087665;28;20020;-79
2021/11/05 08:05:00;;;;;;;11.60;5.13;;;;;;;7.33;100.00;101171.69;5086205;28;20059;-78
2021/11/05 08:07:25;;;;;;;11.05;5.40;;;;;;;7.49;100.00;101171.19;5086989;28;20040;-78
2021/11/05 08:09:50;;;;;;;6.93;4.53;;;;;;;7.58;100.00;101163.25;5089631;28;20216;-78
2021/11/05 08:12:16;;;;;;;12.13;5.57;;;;;;;7.56;100.00;101157.28;5090184;28;20119;-79
2021/11/05 08:14:42;;;;;;;11.23;4.80;;;;;;;7.55;100.00;101163.53;5090054;28;20308;-79
2021/11/05 08:17:07;;;;;;;9.88;5.43;;;;;;;7.51;100.00;101156.81;5091325;28;20050;-78
2021/11/05 08:19:33;;;;;;;12.20;5.80;;;;;;;7.67;100.00;101174.09;5090240;28;20464;-78
2021/11/05 08:21:58;;;;;;;13.32;6.45;;;;;;;7.61;100.00;101173.66;5090177;28;20067;-78
2021/11/05 08:24:27;;;;;;;13.13;6.43;;;;;;;7.64;100.00;101171.72;5089858;28;20035;-78
2021/11/05 08:26:52;;;;;;;17.20;8.38;;;;;;;7.81;100.00;101192.34;5090288;28;20351;-78
2021/11/05 08:29:18;;;;;;;14.80;7.05;;;;;;;7.76;100.00;101176.78;5090146;28;20036;-79
2021/11/05 08:31:43;;;;;;;17.90;7.07;;;;;;;7.90;100.00;101196.84;5073132;28;20036;-78
2021/11/05 08:34:09;;;;;;;14.67;7.80;;;;;;;7.97;100.00;101194.50;5072923;28;20031;-79
2021/11/05 08:36:35;;;;;;;14.80;7.67;;;;;;;8.22;100.00;101209.16;5091068;28;20032;-79
2021/11/05 08:39:00;;;;;;;14.48;6.88;;;;;;;8.45;100.00;101218.59;5090044;28;20278;-78
2021/11/05 08:41:26;;;;;;;16.00;6.20;;;;;;;8.62;100.00;101218.91;5073014;28;20032;-79
2021/11/05 08:43:58;;;;;;;18.33;7.23;;;;;;;8.54;100.00;101210.75;5089525;28;20361;-78
2021/11/05 08:46:26;;;;;;;13.27;6.30;;;;;;;8.66;100.00;101209.66;5090690;28;20316;-78
2021/11/05 08:48:56;;;;;;;12.85;6.65;;;;;;;8.88;100.00;101220.03;5089601;28;20040;-78
2021/11/05 08:51:23;;;;;;;13.68;6.10;;;;;;;9.21;100.00;101215.25;5072705;28;20123;-78
2021/11/05 08:53:49;;;;;;;12.05;7.88;;;;;;;10.08;100.00;101259.50;5089343;28;20103;-78
2021/11/05 08:56:15;;;;;;;11.15;6.30;;;;;;;10.73;96.88;101234.59;5090430;28;20452;-79
2021/11/05 08:58:41;;;;;;;;;;;;;;;11.23;93.97;101241.22;5090083;28;20039;-78
2021/11/05 09:01:06;;;;;;;;;;;;;;;12.12;87.37;101211.53;5090054;28;19908;-78
2021/11/05 09:03:32;;;;;;;10.10;4.97;;;;;;;11.89;86.11;101189.03;5090224;28;19912;-78
2021/11/05 09:05:59;;;;;;;11.23;5.70;;;;;;;11.11;86.61;101174.66;5089463;28;20024;-79
2021/11/05 09:08:29;;;;;;;10.52;5.13;;;;;;;10.64;87.72;101160.75;5088986;28;20473;-79
2021/11/05 09:10:55;;;;;;;8.95;4.90;;;;;;;10.31;89.74;101176.44;5090077;28;20036;-79
2021/11/05 09:13:21;;;;;;;13.23;5.78;;;;;;;10.04;91.14;101177.25;5089717;28;20039;-77
2021/11/05 09:15:47;;;;;;;11.27;5.37;;;;;;;9.79;92.11;101187.63;5090122;28;20028;-79
2021/11/05 09:18:12;;;;;;;9.63;4.63;;;;;;;9.57;92.63;101198.63;5089142;28;20044;-79
2021/11/05 09:20:38;;;;;;;9.65;5.43;;;;;;;9.68;93.04;101209.13;5088282;28;20032;-79
2021/11/05 09:23:04;;;;;;;10.18;4.97;;;;;;;9.82;93.47;101215.81;5088615;28;20443;-78
2021/11/05 09:25:30;;;;;;;10.57;5.75;;;;;;;9.75;93.59;101212.06;5087796;28;20044;-79
2021/11/05 09:27:55;;;;;;;11.67;4.50;;;;;;;9.67;93.56;101215.47;5088451;28;20103;-79
2021/11/05 09:30:23;;;;;;;7.70;3.60;;;;;;;9.86;93.87;101236.72;5089853;28;20035;-78
2021/11/05 09:32:52;;;;;;;13.02;3.95;;;;;;;10.12;92.41;101230.72;5088640;28;20036;-79
2021/11/05 09:35:18;;;;;;;11.25;4.22;;;;;;;10.37;91.59;101229.19;5088667;28;20236;-79
2021/11/05 09:37:44;;;;;;;8.20;3.53;;;;;;;10.18;90.96;101223.94;5089673;28;20024;-79
2021/11/05 09:40:15;;;;;;;13.07;4.28;;;;;;;10.03;90.05;101205.75;5088627;28;20451;-78
2021/11/05 09:42:46;;;;;;;13.48;3.53;;;;;;;10.15;90.46;101223.25;5088205;28;20047;-78
2021/11/05 09:45:13;;;;;;;12.50;3.53;;;;;;;10.38;89.92;101217.56;5087556;28;20038;-79
2021/11/05 09:47:40;;;;;;;10.38;2.92;;;;;;;10.54;89.79;101224.91;5086469;28;20398;-79
2021/11/05 09:50:08;;;;;;;12.30;4.18;;;;;;;10.21;89.95;101219.16;5076120;28;20027;-78
2021/11/05 09:52:34;;;;;;;9.07;3.35;;;;;;;10.39;89.98;101232.56;5096347;28;20110;-79
2021/11/05 09:55:00;;;;;;;11.83;3.50;;;;;;;10.38;89.82;101225.56;5098324;28;20330;-78
2021/11/05 09:57:26;;;;;;;8.57;3.45;;;;;;;10.52;88.72;101222.38;5093429;28;20075;-79
2021/11/05 09:59:51;;;;;;;6.95;4.00;;;;;;;10.35;89.23;101221.34;5091826;28;20066;-79
2021/11/05 10:02:17;;;;;;;8.50;3.65;;;;;;;10.81;89.25;101264.06;5072975;28;20117;-79
2021/11/05 10:04:44;;;;;;;10.07;3.27;;;;;;;11.08;88.12;101248.97;5077928;28;20015;-78
2021/11/05 10:07:11;;;;;;;10.27;3.30;;;;;;;11.07;87.29;101244.59;5092744;28;20524;-78
2021/11/05 10:09:39;;;;;;;10.35;3.53;;;;;;;10.98;87.81;101239.19;5094730;28;20059;-78
2021/11/05 10:12:17;;;;;;;6.78;2.72;;;;;;;10.70;88.45;101233.09;5097634;28;20386;-79
2021/11/05 10:14:45;;;;;;;7.63;3.17;;;;;;;11.10;88.42;101265.69;5090812;28;20043;-79
2021/11/05 10:17:14;;;;;;;7.80;3.15;;;;;;;10.98;88.48;101260.56;5092762;28;20045;-79
2021/11/05 10:19:49;;;;;;;9.57;2.80;;;;;;;10.72;88.43;101255.13;5091573;28;20107;-79
2021/11/05 10:22:36;;;;;;;10.77;3.08;;;;;;;10.97;89.04;101280.25;5095298;28;20476;-78
2021/11/05 10:25:26;;;;;;;7.78;2.88;;;;;;;11.32;88.64;101283.06;5093642;28;20028;-79
2021/11/05 10:28:05;;;;;;;5.93;2.45;;;;;;;11.28;87.65;101265.66;5093027;28;20032;-78
2021/11/05 10:30:33;;;;;;;4.60;2.35;;;;;;;11.62;87.26;101279.13;5074676;28;20046;-79
2021/11/05 10:33:01;;;;;;;8.90;2.65;;;;;;;11.48;85.39;101250.28;5093357;28;20019;-79
2021/11/05 10:35:28;;;;;;;11.23;2.92;;;;;;;11.71;86.20;101283.53;5091110;28;20449;-79
2021/11/05 10:37:54;;;;;;;;;;;;;;;11.66;86.54;101283.19;5089511;28;20031;-79
2021/11/05 10:40:20;;;;;;;6.60;1.83;;;;;;;12.58;84.78;101292.38;5094198;28;20076;-79
2021/11/05 10:42:47;;;;;;;4.63;2.15;;;;;;;12.38;83.85;101264.19;5092035;28;20508;-79
2021/11/05 10:45:21;;;;;;;6.97;1.65;;;;;;;11.83;83.71;101242.16;5098367;28;20046;-78
2021/11/05 10:47:54;;;;;;;3.90;1.43;;;;;;;11.61;84.70;101240.84;5094556;27;20031;-78
2021/11/05 10:50:27;;;;;;;6.43;2.08;;;;;;;11.60;85.73;101255.22;5089313;28;20322;-78
2021/11/05 10:53:02;;;;;;;5.93;1.67;;;;;;;11.50;85.80;101259.00;5088658;28;20039;-78
2021/11/05 10:55:49;;;;;;;5.40;1.60;;;;;;;11.33;86.02;101241.97;5091822;28;20036;-78
2021/11/05 10:58:24;;;;;;;3.50;0.90;;;;;;;11.33;86.92;101264.22;5094188;28;20127;-78
2021/11/05 11:00:53;;;;;;;4.82;1.02;;;;;;;11.44;86.80;101272.97;5092034;28;20027;-77
2021/11/05 11:03:26;;;;;;;5.70;1.10;;;;;;;11.32;85.28;101251.00;5092481;28;20035;-77
2021/11/05 11:05:54;;;;;;;1.85;0.60;;;;;;;11.30;85.65;101247.63;5097425;28;20489;-78
2021/11/05 11:08:26;;;;;;;3.83;0.90;;;;;;;11.28;86.30;101263.81;5093458;28;20062;-78
2021/11/05 11:10:58;;;;;;;3.53;0.70;;;;;;;11.62;84.92;101266.59;5091424;28;20153;-78
2021/11/05 11:13:27;;;;;;;6.38;2.05;;;;;;;12.04;83.41;101273.91;5094336;28;20089;-78